METAR Reports

Area Airport Weather Conditions

KBDL - Windsor Locks, Connecticut, USA
Distance from station: NE 45mi, 72km
Updated: 9:51AM EDT, March 21, 2019
Light rain, Overcast
Light rain, Overcast
 Wind from NNE
Wind: NNE 3 mph , 6 km/h
Temperature: 41°F , 5°C
Dew Point: 34°F , 1°C
Humidity: 76%
Barometer: 30.17 inHg , 1021.7 hPa
Summary: Light rain
Clouds: Overcast
Visibility: 9 miles , 14 km
Cloud details: Few Clouds 3500 ft
Mostly cloudy 4700 ft
Overcast 12000 ft
2019/03/21 13:51 KBDL 211351Z 02003KT 9SM -RA FEW035 BKN047 OVC120 05/01 A3017 RMK AO2 RAB45 SLP218 P0000 T00500006
KDXR - Danbury, Connecticut, USA
Distance from station: SSW 15mi, 24km
Updated: 10:27AM EDT, March 21, 2019
Overcast
Overcast
 Wind from ENE
Wind: ENE 7 mph , 11 km/h
Temperature: 41°F , 5°C
Wind Chill: 36°F , 2°C
Dew Point: 37°F , 3°C
Humidity: 87%
Barometer: 30.15 inHg , 1021 hPa
Clouds: Overcast
Visibility: 10 miles , 16 km
Cloud details: Partly cloudy 1100 ft
Mostly cloudy 2500 ft
Overcast 3300 ft
2019/03/21 14:27 KDXR 211427Z 07006KT 10SM SCT011 BKN025 OVC033 05/03 A3015 RMK AO2 RAB00E16 P0000 T00500028
 
KOXC - Oxford/Waterbury, Connecticut, USA
Distance from station: ESE 16mi, 26km
Updated: 9:51AM EDT, March 21, 2019
Light rain, Overcast
Light rain, Overcast
 Wind from SE
Wind: SE 7 mph , 11 km/h
Temperature: 39°F , 4°C
Wind Chill: 34°F , 1°C
Dew Point: 36°F , 2°C
Humidity: 87%
Barometer: 30.15 inHg , 1021 hPa
Summary: Light rain
Clouds: Overcast
Visibility: 8 miles , 13 km
Cloud details: Overcast 3300 ft
2019/03/21 13:51 KOXC 211351Z 13006KT 8SM -RA OVC033 04/02 A3015 RMK AO2 SLP227 P0001 T00440017
KPOU - Poughkeepsie, New York, USA
Distance from station: W 25mi, 40km
Updated: 10:15AM EDT, March 21, 2019
Mist, Overcast
Mist, Overcast
 Wind from E
Wind: E 7 mph , 11 km/h
Temperature: 41°F , 5°C
Wind Chill: 36°F , 2°C
Dew Point: 37°F , 3°C
Humidity: 87%
Barometer: 30.13 inHg , 1020.3 hPa
Summary: Mist
Clouds: Overcast
Visibility: 5 miles , 8 km
Cloud details: Overcast 3100 ft
2019/03/21 14:15 KPOU 211415Z 10006KT 5SM BR OVC031 05/03 A3013 RMK AO2 RAE07 P0000 T00500028
 
KMMK - Meriden, Connecticut, USA
Distance from station: E 30mi, 48km
Updated: 9:53AM EDT, March 21, 2019
Overcast
Overcast
 Wind from SE
Wind: SE 9 mph , 15 km/h
Temperature: 45°F , 7°C
Wind Chill: 40°F , 4°C
Dew Point: 34°F , 1°C
Humidity: 66%
Barometer: 30.17 inHg , 1021.7 hPa
Clouds: Overcast
Visibility: 10 miles , 16 km
Cloud details: Overcast 4000 ft
2019/03/21 13:53 KMMK 211353Z AUTO 14008KT 10SM OVC040 07/01 A3017 RMK AO2 SLP216 T00670011
KBDR - Bridgeport, Connecticut, USA
Distance from station: SSE 32mi, 51km
Updated: 9:52AM EDT, March 21, 2019
Light rain, Overcast
Light rain, Overcast
 Wind from ENE
Wind: ENE 12 mph , 19 km/h
Temperature: 43°F , 6°C
Wind Chill: 37°F , 3°C
Dew Point: 37°F , 3°C
Humidity: 81%
Barometer: 30.17 inHg , 1021.7 hPa
Summary: Light rain
Clouds: Overcast
Visibility: 9 miles , 14 km
Cloud details: Overcast 4000 ft
2019/03/21 13:52 KBDR 211352Z 07010KT 9SM -RA OVC040 06/03 A3017 RMK AO2 RAB50 SLP216 P0000 T00560028
 
KHVN - New Haven/Tweed, Connecticut, USA
Distance from station: SE 35mi, 57km
Updated: 9:53AM EDT, March 21, 2019
Overcast
Overcast
 Wind from E
Wind: E 9 mph , 15 km/h
Temperature: 46°F , 8°C
Wind Chill: 41°F , 5°C
Dew Point: 36°F , 2°C
Humidity: 66%
Barometer: 30.16 inHg , 1021.3 hPa
Clouds: Overcast
Visibility: 10 miles , 16 km
Cloud details: Overcast 3800 ft
2019/03/21 13:53 KHVN 211353Z 09008KT 10SM OVC038 08/02 A3016 RMK AO2 SLP214 T00780017
KSWF - Newburgh/Stewart, New York, USA
Distance from station: W 35mi, 57km
Updated: 9:45AM EDT, March 21, 2019
Light rain, Mist, Overcast
Light rain, Mist, Overcast
 Wind from varies
Wind: varies 6 mph , 9 km/h
Temperature: 39°F , 4°C
Wind Chill: 35°F , 2°C
Dew Point: 39°F , 4°C
Humidity: 100%
Barometer: 30.13 inHg , 1020.3 hPa
Summary: Light rain, Mist
Clouds: Overcast
Visibility: 3 miles , 5 km
Cloud details: Overcast 1000 ft
2019/03/21 13:45 KSWF 211345Z VRB05KT 3SM -RA BR OVC010 04/04 A3013
 
KHPN - White Plains, New York, USA
Distance from station: SSW 38mi, 62km
Updated: 9:56AM EDT, March 21, 2019
Light drizzle, Mist, Overcast
Light drizzle, Mist, Overcast
 Wind from E
Wind: E 7 mph , 11 km/h
Temperature: 41°F , 5°C
Wind Chill: 36°F , 2°C
Dew Point: 37°F , 3°C
Humidity: 87%
Barometer: 30.12 inHg , 1020 hPa
Summary: Light drizzle, Mist
Clouds: Overcast
Visibility: 6 miles , 10 km
Cloud details: Mostly cloudy 3200 ft
Overcast 5000 ft
2019/03/21 13:56 KHPN 211356Z 08006KT 6SM -DZ BR BKN032 OVC050 05/03 A3012 RMK AO2 RAB52E53DZB53 SLP204 P0000 T00500033
KHFD - Hartford/Brainar, Connecticut, USA
Distance from station: ENE 41mi, 65km
Updated: 9:53AM EDT, March 21, 2019
Overcast
Overcast
 Wind from varies
Wind: varies 5 mph , 7 km/h
Temperature: 43°F , 6°C
Wind Chill: 40°F , 4°C
Dew Point: 34°F , 1°C
Humidity: 71%
Barometer: 30.19 inHg , 1022.4 hPa
Clouds: Overcast
Visibility: 10 miles , 16 km
Cloud details: Partly cloudy 3300 ft
Mostly cloudy 4500 ft
Overcast 5500 ft
2019/03/21 13:53 KHFD 211353Z VRB04KT 10SM SCT033 BKN045 OVC055 06/01 A3019 RMK AO2 RAB05E48 SLP221 P0000 T00610011